createdAt,value
2023-03-06T00:00:36.042Z,47.10
2023-03-06T00:03:02.965Z,44.90
2023-03-06T00:05:29.559Z,50.92
2023-03-06T00:07:56.352Z,51.38
2023-03-06T00:10:26.583Z,44.75
2023-03-06T00:12:58.115Z,48.83
2023-03-06T00:15:25.820Z,48.13
2023-03-06T00:17:52.720Z,50.90
2023-03-06T00:20:20.841Z,47.05
2023-03-06T00:22:48.022Z,46.60
2023-03-06T00:25:17.992Z,54.70
2023-03-06T00:27:44.903Z,45.53
2023-03-06T00:30:14.730Z,50.67
2023-03-06T00:32:42.583Z,48.85
2023-03-06T00:35:09.783Z,50.58
2023-03-06T00:37:36.530Z,42.22
2023-03-06T00:40:06.308Z,43.97
2023-03-06T00:42:32.866Z,45.75
2023-03-06T00:44:59.410Z,46.72
2023-03-06T00:47:25.926Z,46.40
2023-03-06T00:49:52.429Z,52.25
2023-03-06T00:52:19.017Z,47.45
2023-03-06T00:54:45.579Z,46.78
2023-03-06T00:57:12.064Z,48.08
2023-03-06T00:59:38.685Z,51.05
2023-03-06T01:02:06.561Z,45.30
2023-03-06T01:04:33.189Z,45.35
2023-03-06T01:06:59.758Z,48.17
2023-03-06T01:09:26.321Z,51.20
2023-03-06T01:11:53.743Z,38.83
2023-03-06T01:14:20.285Z,42.95
2023-03-06T01:16:47.315Z,49.88
2023-03-06T01:19:17.199Z,43.83
2023-03-06T01:21:44.944Z,45.83
2023-03-06T01:24:11.566Z,50.80
2023-03-06T01:26:38.161Z,42.22
2023-03-06T01:29:04.830Z,40.40
2023-03-06T01:31:31.957Z,50.65
2023-03-06T01:33:58.556Z,40.47
2023-03-06T01:36:25.128Z,45.90
2023-03-06T01:38:51.760Z,47.28
2023-03-06T01:41:21.157Z,52.00
2023-03-06T01:43:48.644Z,44.47
2023-03-06T01:46:37.989Z,47.75
2023-03-06T01:49:26.772Z,41.90
2023-03-06T01:51:53.230Z,50.40
2023-03-06T01:54:27.022Z,52.55
2023-03-06T01:57:02.704Z,43.60
2023-03-06T01:59:30.288Z,41.72
2023-03-06T02:01:58.465Z,47.55
2023-03-06T02:04:25.072Z,54.97
2023-03-06T02:06:51.937Z,51.72
2023-03-06T02:09:18.655Z,44.25
2023-03-06T02:11:46.311Z,48.33
2023-03-06T02:14:16.337Z,46.22
2023-03-06T02:16:44.263Z,48.95
2023-03-06T02:19:27.652Z,51.72
2023-03-06T02:21:54.657Z,50.67
2023-03-06T02:24:43.680Z,50.83
2023-03-06T02:27:12.533Z,50.42
2023-03-06T02:29:39.038Z,42.97
2023-03-06T02:32:05.943Z,54.80
2023-03-06T02:34:45.973Z,49.03
2023-03-06T02:37:12.616Z,45.88
2023-03-06T02:39:53.146Z,44.88
2023-03-06T02:42:26.576Z,47.33
2023-03-06T02:44:56.616Z,50.05
2023-03-06T02:47:23.199Z,50.33
2023-03-06T02:49:49.738Z,44.60
2023-03-06T02:52:17.846Z,48.03
2023-03-06T02:54:44.426Z,45.15
2023-03-06T02:57:12.020Z,49.50
2023-03-06T02:59:38.881Z,44.60
2023-03-06T03:02:06.119Z,44.40
2023-03-06T03:04:34.203Z,44.88
2023-03-06T03:07:01.541Z,44.60
2023-03-06T03:09:28.393Z,41.25
2023-03-06T03:11:54.931Z,52.45
2023-03-06T03:14:23.917Z,43.75
2023-03-06T03:16:50.416Z,51.53
2023-03-06T03:19:17.300Z,45.22
2023-03-06T03:21:43.845Z,49.47
2023-03-06T03:24:10.435Z,52.38
2023-03-06T03:26:37.000Z,43.25
2023-03-06T03:29:10.713Z,47.10
2023-03-06T03:31:37.581Z,46.15
2023-03-06T03:34:04.154Z,43.00
2023-03-06T03:36:33.902Z,47.05
2023-03-06T03:39:00.643Z,44.20
2023-03-06T03:41:27.310Z,39.83
2023-03-06T03:43:53.828Z,48.65
2023-03-06T03:46:21.563Z,46.00
2023-03-06T03:48:49.291Z,47.38
2023-03-06T03:51:17.616Z,56.97
2023-03-06T03:53:49.293Z,54.20
2023-03-06T03:56:19.487Z,41.60
2023-03-06T03:58:54.558Z,48.97
2023-03-06T04:01:22.194Z,43.05
2023-03-06T04:03:49.031Z,51.10
2023-03-06T04:06:17.546Z,47.75
2023-03-06T04:08:44.745Z,44.00
2023-03-06T04:11:11.861Z,48.15
2023-03-06T04:13:38.418Z,47.72
2023-03-06T04:16:06.100Z,49.05
2023-03-06T04:18:34.054Z,45.13
2023-03-06T04:21:04.399Z,54.53
2023-03-06T04:23:31.868Z,51.00
2023-03-06T04:25:58.821Z,50.33
2023-03-06T04:28:25.581Z,54.55
2023-03-06T04:30:52.269Z,49.60
2023-03-06T04:33:19.885Z,56.13
2023-03-06T04:35:46.468Z,56.30
2023-03-06T04:38:18.798Z,57.42
2023-03-06T04:40:45.626Z,47.28
2023-03-06T04:43:12.366Z,51.75
2023-03-06T04:45:39.065Z,44.83
2023-03-06T04:48:05.968Z,55.15
2023-03-06T04:50:32.575Z,50.50
2023-03-06T04:53:03.480Z,56.58
2023-03-06T04:55:30.691Z,48.50
2023-03-06T04:57:57.727Z,43.25
2023-03-06T05:00:30.521Z,53.47
2023-03-06T05:02:59.642Z,50.33
2023-03-06T05:05:26.772Z,53.10
2023-03-06T05:07:54.648Z,47.65
2023-03-06T05:10:21.617Z,49.15
2023-03-06T05:12:48.197Z,53.22
2023-03-06T05:15:14.727Z,45.65
2023-03-06T05:17:41.610Z,47.67
2023-03-06T05:20:11.968Z,45.97
2023-03-06T05:22:38.596Z,53.88
2023-03-06T05:25:05.762Z,46.10
2023-03-06T05:27:32.297Z,46.80
2023-03-06T05:29:59.236Z,49.10
2023-03-06T05:32:25.891Z,45.85
2023-03-06T05:34:52.462Z,52.08
2023-03-06T05:37:19.137Z,53.90
2023-03-06T05:39:45.835Z,53.17
2023-03-06T05:42:12.367Z,49.10
2023-03-06T05:44:38.982Z,46.50
2023-03-06T05:47:05.691Z,51.22
2023-03-06T05:49:34.290Z,49.50
2023-03-06T05:52:03.903Z,52.20
2023-03-06T05:54:32.014Z,52.67
2023-03-06T05:56:58.713Z,47.35
2023-03-06T05:59:28.408Z,51.78
2023-03-06T06:01:56.086Z,49.45
2023-03-06T06:04:23.966Z,47.78
2023-03-06T06:06:58.978Z,53.42
2023-03-06T06:09:26.815Z,52.92
2023-03-06T06:12:02.034Z,48.30
2023-03-06T06:14:29.953Z,46.85
2023-03-06T06:16:56.630Z,46.65
2023-03-06T06:19:23.168Z,44.67
2023-03-06T06:21:51.841Z,52.75
2023-03-06T06:24:21.019Z,53.20
2023-03-06T06:26:50.367Z,62.72
2023-03-06T06:29:17.089Z,51.50
2023-03-06T06:31:43.618Z,52.80
2023-03-06T06:34:13.584Z,53.42
2023-03-06T06:36:40.632Z,56.63
2023-03-06T06:39:08.649Z,59.22
2023-03-06T06:41:54.960Z,56.97
2023-03-06T06:44:21.933Z,58.22
2023-03-06T06:47:21.393Z,58.53
2023-03-06T06:49:37.168Z,45.90
2023-03-06T06:52:05.273Z,51.72
2023-03-06T06:54:33.512Z,57.60
2023-03-06T06:57:00.556Z,53.70
2023-03-06T06:59:27.037Z,50.33
2023-03-06T07:01:53.613Z,52.72
2023-03-06T07:04:20.453Z,55.38
2023-03-06T07:06:46.986Z,51.85
2023-03-06T07:09:14.065Z,50.60
2023-03-06T07:11:41.234Z,53.75
2023-03-06T07:14:07.806Z,58.67
2023-03-06T07:16:34.411Z,55.88
2023-03-06T07:19:00.905Z,54.40
2023-03-06T07:21:27.519Z,55.42
2023-03-06T07:23:57.159Z,58.42
2023-03-06T07:26:27.471Z,53.90
2023-03-06T07:28:54.333Z,56.38
2023-03-06T07:31:23.360Z,61.78
2023-03-06T07:33:50.801Z,64.25
2023-03-06T07:36:17.945Z,67.35
2023-03-06T07:38:44.692Z,55.28
2023-03-06T07:41:13.592Z,58.50
2023-03-06T07:43:41.679Z,53.85
2023-03-06T07:46:09.735Z,53.83
2023-03-06T07:48:37.699Z,52.13
2023-03-06T07:51:13.161Z,62.28
2023-03-06T07:53:39.614Z,52.88
2023-03-06T07:56:08.980Z,56.33
2023-03-06T07:58:37.741Z,46.63
2023-03-06T08:01:06.245Z,61.30
2023-03-06T08:03:33.308Z,57.33
2023-03-06T08:06:13.941Z,53.53
2023-03-06T08:08:42.413Z,58.47
2023-03-06T08:11:10.549Z,55.50
2023-03-06T08:13:37.496Z,58.40
2023-03-06T08:16:05.200Z,61.88
2023-03-06T08:18:32.007Z,64.80
2023-03-06T08:21:06.852Z,62.17
2023-03-06T08:23:34.146Z,59.63
2023-03-06T08:26:04.441Z,64.40
2023-03-06T08:28:31.455Z,51.83
2023-03-06T08:30:58.459Z,57.35
2023-03-06T08:33:25.127Z,62.65
2023-03-06T08:35:52.661Z,65.30
2023-03-06T08:38:19.189Z,64.55
2023-03-06T08:40:45.665Z,58.17
2023-03-06T08:45:41.007Z,64.03
2023-03-06T08:48:07.525Z,55.25
2023-03-06T08:53:00.577Z,58.28
2023-03-06T08:55:28.171Z,56.53
2023-03-06T08:57:54.688Z,58.03
2023-03-06T09:00:21.473Z,49.42
2023-03-06T09:02:47.991Z,49.90
2023-03-06T09:05:14.509Z,52.08
2023-03-06T09:07:40.961Z,48.22
2023-03-06T09:12:48.632Z,57.05
2023-03-06T09:15:17.379Z,49.38
2023-03-06T09:17:43.996Z,44.40
2023-03-06T09:20:11.864Z,49.60
2023-03-06T09:22:38.762Z,45.72
2023-03-06T09:25:06.094Z,37.70
2023-03-06T09:27:33.005Z,42.63
2023-03-06T09:29:59.491Z,40.38
2023-03-06T09:34:52.585Z,39.33
2023-03-06T09:37:19.049Z,41.67
2023-03-06T09:42:23.658Z,42.13
2023-03-06T09:44:54.465Z,30.55
2023-03-06T09:47:56.660Z,37.20
2023-03-06T09:50:39.871Z,32.75
2023-03-06T09:53:23.195Z,30.00
2023-03-06T09:56:31.843Z,40.00
2023-03-06T09:59:13.865Z,34.88
2023-03-06T10:01:43.265Z,32.35
2023-03-06T10:04:32.222Z,32.67
2023-03-06T10:07:04.469Z,28.58
2023-03-06T10:09:48.904Z,33.03
2023-03-06T10:12:23.657Z,29.38
2023-03-06T10:15:10.541Z,30.08
2023-03-06T10:17:43.761Z,32.50
2023-03-06T10:20:18.841Z,30.88
2023-03-06T10:23:01.195Z,29.83
2023-03-06T10:25:42.942Z,29.38
2023-03-06T10:28:18.143Z,27.63
2023-03-06T10:30:55.731Z,28.08
2023-03-06T10:33:51.517Z,22.08
2023-03-06T10:36:20.461Z,25.00
2023-03-06T10:38:48.703Z,25.95
2023-03-06T10:41:24.944Z,21.65
2023-03-06T10:44:00.571Z,22.70
2023-03-06T10:46:29.506Z,21.67
2023-03-06T10:49:02.528Z,18.17
2023-03-06T10:51:31.111Z,18.55
2023-03-06T10:54:01.450Z,19.88
2023-03-06T10:56:36.495Z,23.30
2023-03-06T10:59:08.785Z,17.00
2023-03-06T11:01:35.577Z,15.77
2023-03-06T11:04:21.205Z,15.93
2023-03-06T11:06:48.078Z,24.52
2023-03-06T11:09:22.137Z,30.38
2023-03-06T11:11:50.012Z,20.55
2023-03-06T11:14:27.502Z,18.20
2023-03-06T11:16:54.355Z,24.60
2023-03-06T11:19:27.314Z,20.30
2023-03-06T11:22:17.763Z,27.73
2023-03-06T11:24:49.045Z,25.45
2023-03-06T11:27:36.631Z,16.60
2023-03-06T11:32:45.809Z,21.30
2023-03-06T11:35:20.378Z,18.42
2023-03-06T11:37:54.943Z,20.67
2023-03-06T11:40:30.193Z,17.50
2023-03-06T11:43:17.343Z,19.05
2023-03-06T11:46:02.273Z,18.08
2023-03-06T11:48:37.997Z,25.38
2023-03-06T11:51:35.703Z,19.67
2023-03-06T11:54:03.168Z,14.73
2023-03-06T11:56:51.659Z,15.20
2023-03-06T11:59:31.929Z,26.25
2023-03-06T12:02:20.291Z,17.60
2023-03-06T12:04:55.035Z,17.88
2023-03-06T12:07:25.464Z,25.98
2023-03-06T12:10:17.259Z,18.50
2023-03-06T12:13:08.864Z,16.60
2023-03-06T12:16:07.987Z,27.92
2023-03-06T12:19:13.708Z,18.83
2023-03-06T12:22:12.693Z,16.30
2023-03-06T12:25:05.617Z,19.58
2023-03-06T12:27:44.133Z,19.90
2023-03-06T12:30:13.672Z,16.55
2023-03-06T12:33:05.209Z,26.02
2023-03-06T12:35:37.393Z,22.02
2023-03-06T12:38:40.834Z,17.52
2023-03-06T12:41:22.802Z,21.25
2023-03-06T12:44:01.302Z,21.55
2023-03-06T12:46:30.434Z,17.80
2023-03-06T12:49:32.085Z,20.08
2023-03-06T12:52:00.932Z,24.70
2023-03-06T12:54:30.631Z,24.58
2023-03-06T12:56:59.727Z,20.45
2023-03-06T12:59:37.115Z,20.70
2023-03-06T13:02:17.861Z,21.02
2023-03-06T13:04:56.785Z,29.27
2023-03-06T13:07:45.473Z,25.13
2023-03-06T13:10:29.246Z,24.00
2023-03-06T13:13:01.612Z,21.27
2023-03-06T13:16:04.112Z,19.98
2023-03-06T13:18:33.554Z,19.60
2023-03-06T13:21:00.048Z,23.45
2023-03-06T13:23:33.468Z,21.75
2023-03-06T13:26:05.375Z,19.02
2023-03-06T13:28:45.051Z,23.73
2023-03-06T13:31:26.433Z,24.35
2023-03-06T13:33:58.505Z,19.88
2023-03-06T13:36:27.782Z,22.27
2023-03-06T13:38:54.367Z,20.40
2023-03-06T13:41:20.828Z,24.30
2023-03-06T13:46:24.866Z,19.70
2023-03-06T13:49:09.532Z,21.70
2023-03-06T13:51:42.134Z,23.33
2023-03-06T13:54:29.782Z,21.90
2023-03-06T13:57:27.480Z,21.77
2023-03-06T14:00:27.955Z,24.40
2023-03-06T14:03:31.009Z,18.63
2023-03-06T14:05:58.901Z,19.85
2023-03-06T14:08:31.681Z,22.92
2023-03-06T14:11:17.148Z,25.80
2023-03-06T14:13:49.733Z,25.83
2023-03-06T14:16:32.665Z,24.17
2023-03-06T14:19:04.143Z,26.90
2023-03-06T14:21:51.066Z,25.50
2023-03-06T14:24:19.814Z,20.33
2023-03-06T14:26:49.888Z,25.05
2023-03-06T14:29:25.231Z,24.80
2023-03-06T14:31:53.916Z,25.10
2023-03-06T14:34:32.854Z,23.15
2023-03-06T14:37:05.609Z,26.17
2023-03-06T14:39:41.684Z,24.90
2023-03-06T14:42:21.041Z,35.30
2023-03-06T14:44:49.675Z,22.42
2023-03-06T14:47:33.950Z,21.77
2023-03-06T14:50:36.264Z,22.90
2023-03-06T14:53:19.278Z,28.15
2023-03-06T14:55:57.996Z,22.85
2023-03-06T14:58:33.377Z,21.10
2023-03-06T15:01:04.983Z,26.05
2023-03-06T15:03:42.797Z,20.63
2023-03-06T15:06:25.112Z,22.73
2023-03-06T15:09:07.583Z,26.85
2023-03-06T15:11:58.812Z,26.27
2023-03-06T15:14:42.392Z,28.48
2023-03-06T15:17:17.944Z,25.83
2023-03-06T15:19:54.473Z,23.70
2023-03-06T15:22:34.521Z,27.30
2023-03-06T15:25:24.256Z,26.02
2023-03-06T15:27:56.717Z,22.15
2023-03-06T15:30:29.174Z,22.30
2023-03-06T15:33:11.159Z,22.83
2023-03-06T15:35:38.554Z,21.92
2023-03-06T15:38:23.744Z,24.35
2023-03-06T15:40:55.692Z,20.48
2023-03-06T15:43:22.220Z,30.13
2023-03-06T15:45:48.820Z,24.30
2023-03-06T15:48:18.382Z,22.02
2023-03-06T15:50:44.925Z,21.33
2023-03-06T15:53:11.383Z,23.23
2023-03-06T15:58:04.701Z,24.40
2023-03-06T16:00:34.222Z,21.98
2023-03-06T16:03:01.875Z,21.65
2023-03-06T16:05:29.433Z,25.70
2023-03-06T16:07:56.593Z,20.65
2023-03-06T16:10:27.287Z,21.30
2023-03-06T16:12:56.997Z,27.30
2023-03-06T16:15:29.682Z,24.70
2023-03-06T16:17:57.258Z,25.67
2023-03-06T16:20:25.652Z,20.67
2023-03-06T16:22:55.268Z,27.42
2023-03-06T16:25:24.685Z,23.05
2023-03-06T16:27:59.064Z,25.20
2023-03-06T16:30:31.269Z,23.98
2023-03-06T16:32:58.177Z,23.90
2023-03-06T16:35:25.867Z,30.98
2023-03-06T16:37:52.646Z,25.48
2023-03-06T16:40:25.153Z,24.90
2023-03-06T16:42:54.044Z,30.33
2023-03-06T16:45:22.673Z,28.45
2023-03-06T16:47:50.005Z,29.77
2023-03-06T16:50:32.912Z,36.97
2023-03-06T16:52:59.469Z,30.88
2023-03-06T16:55:27.062Z,29.27
2023-03-06T16:57:53.670Z,26.88
2023-03-06T17:00:21.685Z,36.47
2023-03-06T17:02:49.455Z,27.38
2023-03-06T17:05:16.319Z,27.42
2023-03-06T17:07:42.792Z,31.67
2023-03-06T17:12:37.368Z,27.63
2023-03-06T17:15:04.795Z,29.73
2023-03-06T17:17:31.679Z,28.38
2023-03-06T17:19:58.356Z,28.52
2023-03-06T17:22:25.236Z,27.80
2023-03-06T17:24:52.257Z,27.45
2023-03-06T17:27:20.547Z,25.42
2023-03-06T17:29:47.616Z,25.73
2023-03-06T17:32:14.461Z,23.55
2023-03-06T17:34:41.202Z,29.42
2023-03-06T17:39:36.653Z,30.52
2023-03-06T17:42:04.618Z,26.23
2023-03-06T17:44:32.372Z,25.98
2023-03-06T17:46:59.239Z,30.52
2023-03-06T17:49:25.737Z,27.75
2023-03-06T17:54:19.726Z,20.40
2023-03-06T17:56:46.326Z,28.15
2023-03-06T17:59:12.872Z,24.30
2023-03-06T18:01:39.420Z,28.70
2023-03-06T18:04:06.280Z,25.75
2023-03-06T18:06:33.785Z,24.48
2023-03-06T18:09:02.382Z,26.63
2023-03-06T18:11:28.997Z,28.92
2023-03-06T18:13:55.477Z,33.55
2023-03-06T18:16:24.944Z,26.45
2023-03-06T18:18:53.424Z,25.73
2023-03-06T18:21:21.164Z,27.42
2023-03-06T18:23:47.710Z,24.35
2023-03-06T18:26:28.305Z,32.03
2023-03-06T18:28:57.604Z,26.25
2023-03-06T18:31:33.769Z,24.00
2023-03-06T18:34:04.286Z,32.45
2023-03-06T18:36:33.032Z,31.40
2023-03-06T18:39:02.028Z,27.63
2023-03-06T18:41:28.504Z,30.65
2023-03-06T18:46:23.677Z,26.65
2023-03-06T18:48:50.292Z,28.55
2023-03-06T18:51:17.781Z,28.50
2023-03-06T18:53:44.354Z,26.23
2023-03-06T18:56:21.313Z,25.92
2023-03-06T19:01:15.376Z,27.05
2023-03-06T19:03:42.060Z,34.58
2023-03-06T19:06:11.759Z,26.45
2023-03-06T19:08:39.449Z,30.40
2023-03-06T19:11:15.417Z,35.33
2023-03-06T19:13:42.246Z,29.02
2023-03-06T19:16:15.767Z,28.83
2023-03-06T19:18:42.264Z,34.03
2023-03-06T19:23:36.387Z,34.13
2023-03-06T19:26:02.884Z,28.05
2023-03-06T19:28:29.447Z,37.08
2023-03-06T19:30:56.952Z,30.17
2023-03-06T19:33:23.600Z,31.23
2023-03-06T19:35:50.152Z,40.13
2023-03-06T19:38:16.764Z,38.08
2023-03-06T19:40:52.160Z,43.67
2023-03-06T19:43:18.680Z,48.72
2023-03-06T19:45:45.296Z,34.70
2023-03-06T19:48:12.496Z,35.60
2023-03-06T19:50:40.261Z,32.67
2023-03-06T19:53:07.745Z,33.13
2023-03-06T19:55:34.633Z,41.60
2023-03-06T19:58:01.174Z,31.80
2023-03-06T20:00:28.131Z,33.78
2023-03-06T20:02:55.272Z,37.40
2023-03-06T20:05:22.257Z,145.95
2023-03-06T20:07:49.757Z,51.65
2023-03-06T20:10:16.749Z,52.78
2023-03-06T20:12:43.232Z,38.83
2023-03-06T20:15:10.536Z,50.78
2023-03-06T20:17:40.369Z,36.38
2023-03-06T20:20:10.749Z,39.72
2023-03-06T20:22:37.340Z,30.38
2023-03-06T20:25:04.433Z,36.83
2023-03-06T20:27:30.928Z,32.70
2023-03-06T20:32:23.853Z,44.70
2023-03-06T20:34:50.389Z,33.95
2023-03-06T20:37:16.871Z,31.58
2023-03-06T20:39:43.357Z,27.52
2023-03-06T20:42:09.877Z,29.98
2023-03-06T20:44:36.497Z,33.55
2023-03-06T20:47:02.961Z,31.25
2023-03-06T20:49:29.472Z,35.92
2023-03-06T20:51:56.693Z,27.92
2023-03-06T20:54:23.193Z,32.65
2023-03-06T20:56:50.244Z,27.38
2023-03-06T20:59:16.918Z,30.80
2023-03-06T21:01:45.340Z,36.15
2023-03-06T21:04:14.017Z,37.58
2023-03-06T21:06:43.539Z,36.10
2023-03-06T21:09:10.832Z,34.92
2023-03-06T21:11:37.296Z,33.50
2023-03-06T21:16:30.467Z,37.92
2023-03-06T21:18:59.310Z,35.03
2023-03-06T21:21:30.448Z,34.55
2023-03-06T21:23:57.590Z,40.63
2023-03-06T21:26:27.511Z,32.65
2023-03-06T21:28:54.338Z,34.70
2023-03-06T21:31:22.148Z,36.53
2023-03-06T21:33:49.984Z,32.30
2023-03-06T21:36:18.678Z,33.42
2023-03-06T21:38:45.498Z,37.83
2023-03-06T21:41:19.163Z,34.88
2023-03-06T21:43:45.800Z,35.78
2023-03-06T21:46:13.015Z,35.78
2023-03-06T21:48:39.681Z,34.92
2023-03-06T21:51:15.692Z,38.13
2023-03-06T21:53:43.249Z,36.25
2023-03-06T21:56:11.027Z,32.75
2023-03-06T21:58:37.584Z,34.15
2023-03-06T22:01:16.871Z,32.60
2023-03-06T22:03:43.594Z,34.08
2023-03-06T22:06:14.480Z,39.67
2023-03-06T22:08:41.681Z,29.55
2023-03-06T22:11:11.274Z,32.88
2023-03-06T22:13:38.333Z,33.45
2023-03-06T22:16:06.039Z,33.13
2023-03-06T22:18:33.225Z,34.70
2023-03-06T22:20:59.836Z,31.20
2023-03-06T22:23:26.659Z,37.80
2023-03-06T22:25:53.184Z,34.65
2023-03-06T22:28:19.740Z,34.47
2023-03-06T22:30:46.225Z,36.55
2023-03-06T22:33:12.736Z,33.28
2023-03-06T22:35:39.377Z,32.90
2023-03-06T22:38:06.022Z,37.88
2023-03-06T22:40:33.291Z,35.58
2023-03-06T22:42:59.851Z,34.75
2023-03-06T22:45:27.115Z,35.25
2023-03-06T22:48:02.328Z,37.80
2023-03-06T22:50:35.700Z,31.45
2023-03-06T22:53:02.186Z,31.83
2023-03-06T22:57:55.133Z,35.78
2023-03-06T23:00:21.749Z,32.17
2023-03-06T23:18:10.843Z,36.42
2023-03-06T23:20:55.697Z,35.17
2023-03-06T23:23:42.068Z,38.17
2023-03-06T23:26:13.393Z,36.13
2023-03-06T23:28:40.726Z,33.65
2023-03-06T23:31:16.663Z,33.90
2023-03-06T23:33:43.230Z,36.87
2023-03-06T23:36:11.936Z,35.65
2023-03-06T23:38:39.016Z,35.08
2023-03-06T23:41:09.022Z,34.13
2023-03-06T23:43:36.397Z,35.45
2023-03-06T23:46:03.631Z,34.20
2023-03-06T23:48:30.452Z,34.85
2023-03-06T23:50:57.345Z,32.35
2023-03-06T23:53:23.972Z,32.13
2023-03-06T23:55:51.549Z,32.97
2023-03-06T23:58:19.047Z,32.25
